sensor_id;sensor_type;location;lat;lon;timestamp;temperature;humidity
11242;DHT22;5678;52.370;9.006;2022-12-07T00:01:06;4.00;99.90
11242;DHT22;5678;52.370;9.006;2022-12-07T00:03:36;4.00;99.90
11242;DHT22;5678;52.370;9.006;2022-12-07T00:06:06;4.00;99.90
11242;DHT22;5678;52.370;9.006;2022-12-07T00:08:35;3.80;99.90
11242;DHT22;5678;52.370;9.006;2022-12-07T00:11:06;4.00;99.90
11242;DHT22;5678;52.370;9.006;2022-12-07T00:13:35;4.00;99.90
11242;DHT22;5678;52.370;9.006;2022-12-07T00:16:05;4.00;99.90
11242;DHT22;5678;52.370;9.006;2022-12-07T00:18:33;4.00;99.90
11242;DHT22;5678;52.370;9.006;2022-12-07T00:21:03;4.00;99.90
11242;DHT22;5678;52.370;9.006;2022-12-07T00:23:32;4.10;99.90
11242;DHT22;5678;52.370;9.006;2022-12-07T00:26:05;4.00;99.90
11242;DHT22;5678;52.370;9.006;2022-12-07T00:28:33;4.10;99.90
11242;DHT22;5678;52.370;9.006;2022-12-07T00:31:03;4.10;99.90
11242;DHT22;5678;52.370;9.006;2022-12-07T00:33:31;5.20;99.90
11242;DHT22;5678;52.370;9.006;2022-12-07T00:36:00;4.10;99.90
11242;DHT22;5678;52.370;9.006;2022-12-07T00:38:31;4.00;99.90
11242;DHT22;5678;52.370;9.006;2022-12-07T00:41:00;4.10;99.90
11242;DHT22;5678;52.370;9.006;2022-12-07T00:43:30;4.10;99.90
11242;DHT22;5678;52.370;9.006;2022-12-07T00:45:58;5.00;99.90
11242;DHT22;5678;52.370;9.006;2022-12-07T00:48:27;4.20;99.90
11242;DHT22;5678;52.370;9.006;2022-12-07T00:50:54;4.80;99.90
11242;DHT22;5678;52.370;9.006;2022-12-07T00:53:23;4.20;99.90
11242;DHT22;5678;52.370;9.006;2022-12-07T00:55:51;4.30;99.90
11242;DHT22;5678;52.370;9.006;2022-12-07T00:58:19;6.10;99.90
11242;DHT22;5678;52.370;9.006;2022-12-07T01:00:49;4.90;99.90
11242;DHT22;5678;52.370;9.006;2022-12-07T01:03:18;5.90;99.90
11242;DHT22;5678;52.370;9.006;2022-12-07T01:05:50;5.70;99.90
11242;DHT22;5678;52.370;9.006;2022-12-07T01:08:18;3.70;99.90
11242;DHT22;5678;52.370;9.006;2022-12-07T01:10:47;4.30;99.90
11242;DHT22;5678;52.370;9.006;2022-12-07T01:13:15;4.60;99.90
11242;DHT22;5678;52.370;9.006;2022-12-07T01:15:44;5.00;99.90
11242;DHT22;5678;52.370;9.006;2022-12-07T01:18:13;5.40;99.90
11242;DHT22;5678;52.370;9.006;2022-12-07T01:20:41;4.20;99.90
11242;DHT22;5678;52.370;9.006;2022-12-07T01:23:09;4.30;99.90
11242;DHT22;5678;52.370;9.006;2022-12-07T01:25:37;4.30;99.90
11242;DHT22;5678;52.370;9.006;2022-12-07T01:28:05;5.30;99.90
11242;DHT22;5678;52.370;9.006;2022-12-07T01:30:33;4.30;99.90
11242;DHT22;5678;52.370;9.006;2022-12-07T01:33:01;4.30;99.90
11242;DHT22;5678;52.370;9.006;2022-12-07T01:35:33;4.20;99.90
11242;DHT22;5678;52.370;9.006;2022-12-07T01:38:01;4.20;99.90
11242;DHT22;5678;52.370;9.006;2022-12-07T01:40:29;5.60;99.90
11242;DHT22;5678;52.370;9.006;2022-12-07T01:42:57;4.10;99.90
11242;DHT22;5678;52.370;9.006;2022-12-07T01:45:43;5.90;99.90
11242;DHT22;5678;52.370;9.006;2022-12-07T01:48:13;5.80;99.90
11242;DHT22;5678;52.370;9.006;2022-12-07T01:50:45;5.60;99.90
11242;DHT22;5678;52.370;9.006;2022-12-07T01:53:16;3.90;99.90
11242;DHT22;5678;52.370;9.006;2022-12-07T01:55:47;3.80;99.90
11242;DHT22;5678;52.370;9.006;2022-12-07T01:58:16;3.80;99.90
11242;DHT22;5678;52.370;9.006;2022-12-07T02:00:44;3.80;99.90
11242;DHT22;5678;52.370;9.006;2022-12-07T02:03:16;3.70;99.90
11242;DHT22;5678;52.370;9.006;2022-12-07T02:05:47;3.70;99.90
11242;DHT22;5678;52.370;9.006;2022-12-07T02:08:16;3.70;99.90
11242;DHT22;5678;52.370;9.006;2022-12-07T02:10:45;3.60;99.90
11242;DHT22;5678;52.370;9.006;2022-12-07T02:13:16;3.50;99.90
11242;DHT22;5678;52.370;9.006;2022-12-07T02:16:03;5.50;99.90
11242;DHT22;5678;52.370;9.006;2022-12-07T02:18:42;3.40;99.90
11242;DHT22;5678;52.370;9.006;2022-12-07T02:21:18;3.30;99.90
11242;DHT22;5678;52.370;9.006;2022-12-07T02:24:12;3.00;99.90
11242;DHT22;5678;52.370;9.006;2022-12-07T02:27:23;3.20;99.90
11242;DHT22;5678;52.370;9.006;2022-12-07T02:30:00;3.10;99.90
11242;DHT22;5678;52.370;9.006;2022-12-07T02:32:38;3.10;99.90
11242;DHT22;5678;52.370;9.006;2022-12-07T02:35:11;3.00;99.90
11242;DHT22;5678;52.370;9.006;2022-12-07T02:37:43;4.10;99.90
11242;DHT22;5678;52.370;9.006;2022-12-07T02:40:18;3.00;99.90
11242;DHT22;5678;52.370;9.006;2022-12-07T02:45:18;2.90;99.90
11242;DHT22;5678;52.370;9.006;2022-12-07T02:47:51;2.70;99.90
11242;DHT22;5678;52.370;9.006;2022-12-07T02:50:20;2.80;99.90
11242;DHT22;5678;52.370;9.006;2022-12-07T02:52:48;2.80;99.90
11242;DHT22;5678;52.370;9.006;2022-12-07T02:55:19;3.10;99.90
11242;DHT22;5678;52.370;9.006;2022-12-07T02:58:02;2.70;99.90
11242;DHT22;5678;52.370;9.006;2022-12-07T03:00:42;2.80;99.90
11242;DHT22;5678;52.370;9.006;2022-12-07T03:03:14;2.80;99.90
11242;DHT22;5678;52.370;9.006;2022-12-07T03:06:03;2.70;99.90
11242;DHT22;5678;52.370;9.006;2022-12-07T03:08:43;2.70;99.90
11242;DHT22;5678;52.370;9.006;2022-12-07T03:11:14;2.70;99.90
11242;DHT22;5678;52.370;9.006;2022-12-07T03:13:50;4.10;99.90
11242;DHT22;5678;52.370;9.006;2022-12-07T03:16:26;4.40;99.90
11242;DHT22;5678;52.370;9.006;2022-12-07T03:18:58;4.10;99.90
11242;DHT22;5678;52.370;9.006;2022-12-07T03:21:29;2.70;99.90
11242;DHT22;5678;52.370;9.006;2022-12-07T03:24:00;3.30;99.90
11242;DHT22;5678;52.370;9.006;2022-12-07T03:26:34;5.00;99.90
11242;DHT22;5678;52.370;9.006;2022-12-07T03:29:06;5.00;99.90
11242;DHT22;5678;52.370;9.006;2022-12-07T03:31:39;5.00;99.90
11242;DHT22;5678;52.370;9.006;2022-12-07T03:34:11;3.80;99.90
11242;DHT22;5678;52.370;9.006;2022-12-07T03:36:46;2.00;99.90
11242;DHT22;5678;52.370;9.006;2022-12-07T03:39:21;4.60;99.90
11242;DHT22;5678;52.370;9.006;2022-12-07T03:41:50;2.60;99.90
11242;DHT22;5678;52.370;9.006;2022-12-07T03:44:20;2.50;99.90
11242;DHT22;5678;52.370;9.006;2022-12-07T03:46:58;4.40;99.90
11242;DHT22;5678;52.370;9.006;2022-12-07T03:49:34;2.50;99.90
11242;DHT22;5678;52.370;9.006;2022-12-07T03:52:11;2.50;99.90
11242;DHT22;5678;52.370;9.006;2022-12-07T03:54:44;2.50;99.90
11242;DHT22;5678;52.370;9.006;2022-12-07T03:57:13;4.00;99.90
11242;DHT22;5678;52.370;9.006;2022-12-07T03:59:42;4.70;99.90
11242;DHT22;5678;52.370;9.006;2022-12-07T04:02:13;3.50;99.90
11242;DHT22;5678;52.370;9.006;2022-12-07T04:04:42;2.50;99.90
11242;DHT22;5678;52.370;9.006;2022-12-07T04:07:10;3.90;99.90
11242;DHT22;5678;52.370;9.006;2022-12-07T04:09:39;2.50;99.90
11242;DHT22;5678;52.370;9.006;2022-12-07T04:12:07;2.50;99.90
11242;DHT22;5678;52.370;9.006;2022-12-07T04:14:35;2.50;99.90
11242;DHT22;5678;52.370;9.006;2022-12-07T04:17:03;2.50;99.90
11242;DHT22;5678;52.370;9.006;2022-12-07T04:19:34;2.50;99.90
11242;DHT22;5678;52.370;9.006;2022-12-07T04:22:04;2.30;99.90
11242;DHT22;5678;52.370;9.006;2022-12-07T04:24:32;2.60;99.90
11242;DHT22;5678;52.370;9.006;2022-12-07T04:27:00;2.70;99.90
11242;DHT22;5678;52.370;9.006;2022-12-07T04:29:28;4.10;99.90
11242;DHT22;5678;52.370;9.006;2022-12-07T04:31:56;2.70;99.90
11242;DHT22;5678;52.370;9.006;2022-12-07T04:34:24;4.00;99.90
11242;DHT22;5678;52.370;9.006;2022-12-07T04:36:53;3.50;99.90
11242;DHT22;5678;52.370;9.006;2022-12-07T04:39:24;5.00;99.90
11242;DHT22;5678;52.370;9.006;2022-12-07T04:41:53;4.90;99.90
11242;DHT22;5678;52.370;9.006;2022-12-07T04:44:21;2.50;99.90
11242;DHT22;5678;52.370;9.006;2022-12-07T04:46:50;2.60;99.90
11242;DHT22;5678;52.370;9.006;2022-12-07T04:49:19;2.50;99.90
11242;DHT22;5678;52.370;9.006;2022-12-07T04:51:47;2.50;99.90
11242;DHT22;5678;52.370;9.006;2022-12-07T04:54:16;2.50;99.90
11242;DHT22;5678;52.370;9.006;2022-12-07T04:56:44;2.40;99.90
11242;DHT22;5678;52.370;9.006;2022-12-07T04:59:14;2.50;99.90
11242;DHT22;5678;52.370;9.006;2022-12-07T05:01:43;2.40;99.90
11242;DHT22;5678;52.370;9.006;2022-12-07T05:04:11;2.00;99.90
11242;DHT22;5678;52.370;9.006;2022-12-07T05:06:39;2.40;99.90
11242;DHT22;5678;52.370;9.006;2022-12-07T05:09:07;2.40;99.90
11242;DHT22;5678;52.370;9.006;2022-12-07T05:11:37;2.40;99.90
11242;DHT22;5678;52.370;9.006;2022-12-07T05:14:11;3.30;99.90
11242;DHT22;5678;52.370;9.006;2022-12-07T05:16:40;3.80;99.90
11242;DHT22;5678;52.370;9.006;2022-12-07T05:19:09;4.50;99.90
11242;DHT22;5678;52.370;9.006;2022-12-07T05:21:38;2.40;99.90
11242;DHT22;5678;52.370;9.006;2022-12-07T05:24:07;2.50;99.90
11242;DHT22;5678;52.370;9.006;2022-12-07T05:26:37;2.60;99.90
11242;DHT22;5678;52.370;9.006;2022-12-07T05:29:05;2.60;99.90
11242;DHT22;5678;52.370;9.006;2022-12-07T05:31:33;2.50;99.90
11242;DHT22;5678;52.370;9.006;2022-12-07T05:34:01;2.60;99.90
11242;DHT22;5678;52.370;9.006;2022-12-07T05:36:29;2.70;99.90
11242;DHT22;5678;52.370;9.006;2022-12-07T05:38:58;2.70;99.90
11242;DHT22;5678;52.370;9.006;2022-12-07T05:41:26;2.60;99.90
11242;DHT22;5678;52.370;9.006;2022-12-07T05:44:13;4.60;99.90
11242;DHT22;5678;52.370;9.006;2022-12-07T05:46:41;2.70;99.90
11242;DHT22;5678;52.370;9.006;2022-12-07T05:49:09;2.70;99.90
11242;DHT22;5678;52.370;9.006;2022-12-07T05:51:37;2.70;99.90
11242;DHT22;5678;52.370;9.006;2022-12-07T05:54:05;2.70;99.90
11242;DHT22;5678;52.370;9.006;2022-12-07T05:56:33;2.70;99.90
11242;DHT22;5678;52.370;9.006;2022-12-07T05:59:01;2.70;99.90
11242;DHT22;5678;52.370;9.006;2022-12-07T06:01:48;4.80;99.90
11242;DHT22;5678;52.370;9.006;2022-12-07T06:04:16;3.80;99.90
11242;DHT22;5678;52.370;9.006;2022-12-07T06:06:44;2.80;99.90
11242;DHT22;5678;52.370;9.006;2022-12-07T06:09:12;2.80;99.90
11242;DHT22;5678;52.370;9.006;2022-12-07T06:11:41;2.80;99.90
11242;DHT22;5678;52.370;9.006;2022-12-07T06:14:26;3.70;99.90
11242;DHT22;5678;52.370;9.006;2022-12-07T06:16:56;2.90;99.90
11242;DHT22;5678;52.370;9.006;2022-12-07T06:19:24;2.90;99.90
11242;DHT22;5678;52.370;9.006;2022-12-07T06:21:54;4.00;99.90
11242;DHT22;5678;52.370;9.006;2022-12-07T06:24:22;3.80;99.90
11242;DHT22;5678;52.370;9.006;2022-12-07T06:26:50;3.00;99.90
11242;DHT22;5678;52.370;9.006;2022-12-07T06:29:18;3.00;99.90
11242;DHT22;5678;52.370;9.006;2022-12-07T06:31:46;2.90;99.90
11242;DHT22;5678;52.370;9.006;2022-12-07T06:34:17;2.90;99.90
11242;DHT22;5678;52.370;9.006;2022-12-07T06:36:46;3.00;99.90
11242;DHT22;5678;52.370;9.006;2022-12-07T06:39:18;4.90;99.90
11242;DHT22;5678;52.370;9.006;2022-12-07T06:41:46;2.90;99.90
11242;DHT22;5678;52.370;9.006;2022-12-07T06:44:14;3.00;99.90
11242;DHT22;5678;52.370;9.006;2022-12-07T06:46:42;4.80;99.90
11242;DHT22;5678;52.370;9.006;2022-12-07T06:49:10;2.90;99.90
11242;DHT22;5678;52.370;9.006;2022-12-07T06:51:39;3.00;99.90
11242;DHT22;5678;52.370;9.006;2022-12-07T06:54:09;3.00;99.90
11242;DHT22;5678;52.370;9.006;2022-12-07T06:56:37;3.00;99.90
11242;DHT22;5678;52.370;9.006;2022-12-07T06:59:05;2.90;99.90
11242;DHT22;5678;52.370;9.006;2022-12-07T07:01:35;2.90;99.90
11242;DHT22;5678;52.370;9.006;2022-12-07T07:04:03;2.90;99.90
11242;DHT22;5678;52.370;9.006;2022-12-07T07:06:31;2.80;99.90
11242;DHT22;5678;52.370;9.006;2022-12-07T07:09:01;3.80;99.90
11242;DHT22;5678;52.370;9.006;2022-12-07T07:11:29;2.80;99.90
11242;DHT22;5678;52.370;9.006;2022-12-07T07:13:57;2.80;99.90
11242;DHT22;5678;52.370;9.006;2022-12-07T07:16:28;2.70;99.90
11242;DHT22;5678;52.370;9.006;2022-12-07T07:18:57;2.80;99.90
11242;DHT22;5678;52.370;9.006;2022-12-07T07:21:25;2.70;99.90
11242;DHT22;5678;52.370;9.006;2022-12-07T07:23:53;2.70;99.90
11242;DHT22;5678;52.370;9.006;2022-12-07T07:26:22;4.20;99.90
11242;DHT22;5678;52.370;9.006;2022-12-07T07:28:50;2.80;99.90
11242;DHT22;5678;52.370;9.006;2022-12-07T07:31:18;4.20;99.90
11242;DHT22;5678;52.370;9.006;2022-12-07T07:33:46;4.30;99.90
11242;DHT22;5678;52.370;9.006;2022-12-07T07:36:14;4.20;99.90
11242;DHT22;5678;52.370;9.006;2022-12-07T07:38:42;2.80;99.90
11242;DHT22;5678;52.370;9.006;2022-12-07T07:41:10;2.80;99.90
11242;DHT22;5678;52.370;9.006;2022-12-07T07:43:39;2.80;99.90
11242;DHT22;5678;52.370;9.006;2022-12-07T07:46:07;2.80;99.90
11242;DHT22;5678;52.370;9.006;2022-12-07T07:48:35;2.80;99.90
11242;DHT22;5678;52.370;9.006;2022-12-07T07:51:05;2.80;99.90
11242;DHT22;5678;52.370;9.006;2022-12-07T07:53:33;2.80;99.90
11242;DHT22;5678;52.370;9.006;2022-12-07T07:56:01;2.80;99.90
11242;DHT22;5678;52.370;9.006;2022-12-07T07:58:29;2.80;99.90
11242;DHT22;5678;52.370;9.006;2022-12-07T08:01:04;3.90;99.90
11242;DHT22;5678;52.370;9.006;2022-12-07T08:03:33;2.80;99.90
11242;DHT22;5678;52.370;9.006;2022-12-07T08:06:02;2.80;99.90
11242;DHT22;5678;52.370;9.006;2022-12-07T08:08:30;2.80;99.90
11242;DHT22;5678;52.370;9.006;2022-12-07T08:10:58;4.50;99.90
11242;DHT22;5678;52.370;9.006;2022-12-07T08:13:27;4.60;99.90
11242;DHT22;5678;52.370;9.006;2022-12-07T08:15:57;3.00;99.90
11242;DHT22;5678;52.370;9.006;2022-12-07T08:18:27;3.00;99.90
11242;DHT22;5678;52.370;9.006;2022-12-07T08:20:59;3.00;99.90
11242;DHT22;5678;52.370;9.006;2022-12-07T08:23:28;3.00;99.90
11242;DHT22;5678;52.370;9.006;2022-12-07T08:26:08;2.90;99.90
11242;DHT22;5678;52.370;9.006;2022-12-07T08:28:36;3.10;99.90
11242;DHT22;5678;52.370;9.006;2022-12-07T08:31:07;2.90;99.90
11242;DHT22;5678;52.370;9.006;2022-12-07T08:33:37;3.20;99.90
11242;DHT22;5678;52.370;9.006;2022-12-07T08:36:08;3.20;99.90
11242;DHT22;5678;52.370;9.006;2022-12-07T08:38:37;3.20;99.90
11242;DHT22;5678;52.370;9.006;2022-12-07T08:41:06;4.30;99.90
11242;DHT22;5678;52.370;9.006;2022-12-07T08:43:34;4.80;99.90
11242;DHT22;5678;52.370;9.006;2022-12-07T08:46:07;3.30;99.90
11242;DHT22;5678;52.370;9.006;2022-12-07T08:48:40;3.20;99.90
11242;DHT22;5678;52.370;9.006;2022-12-07T08:51:09;3.10;99.90
11242;DHT22;5678;52.370;9.006;2022-12-07T08:53:39;3.50;99.90
11242;DHT22;5678;52.370;9.006;2022-12-07T08:56:09;3.50;99.90
11242;DHT22;5678;52.370;9.006;2022-12-07T08:58:38;3.50;99.90
11242;DHT22;5678;52.370;9.006;2022-12-07T09:01:07;3.50;99.90
11242;DHT22;5678;52.370;9.006;2022-12-07T09:03:35;3.60;99.90
11242;DHT22;5678;52.370;9.006;2022-12-07T09:06:05;3.60;99.90
11242;DHT22;5678;52.370;9.006;2022-12-07T09:08:36;3.60;99.90
11242;DHT22;5678;52.370;9.006;2022-12-07T09:11:05;3.60;99.90
11242;DHT22;5678;52.370;9.006;2022-12-07T09:13:33;3.70;99.90
11242;DHT22;5678;52.370;9.006;2022-12-07T09:16:01;3.70;99.90
11242;DHT22;5678;52.370;9.006;2022-12-07T09:18:29;3.70;99.90
11242;DHT22;5678;52.370;9.006;2022-12-07T09:20:57;3.70;99.90
11242;DHT22;5678;52.370;9.006;2022-12-07T09:23:26;3.60;99.90
11242;DHT22;5678;52.370;9.006;2022-12-07T09:25:54;4.20;99.90
11242;DHT22;5678;52.370;9.006;2022-12-07T09:28:22;3.60;99.90
11242;DHT22;5678;52.370;9.006;2022-12-07T09:30:50;3.70;99.90
11242;DHT22;5678;52.370;9.006;2022-12-07T09:33:38;3.80;99.90
11242;DHT22;5678;52.370;9.006;2022-12-07T09:36:08;3.90;99.90
11242;DHT22;5678;52.370;9.006;2022-12-07T09:38:38;4.00;99.90
11242;DHT22;5678;52.370;9.006;2022-12-07T09:41:06;4.00;99.90
11242;DHT22;5678;52.370;9.006;2022-12-07T09:43:35;4.00;99.90
11242;DHT22;5678;52.370;9.006;2022-12-07T09:46:04;5.10;99.90
11242;DHT22;5678;52.370;9.006;2022-12-07T09:48:35;4.00;99.90
11242;DHT22;5678;52.370;9.006;2022-12-07T09:51:13;4.10;99.90
11242;DHT22;5678;52.370;9.006;2022-12-07T09:53:52;3.50;99.90
11242;DHT22;5678;52.370;9.006;2022-12-07T09:56:21;5.00;99.90
11242;DHT22;5678;52.370;9.006;2022-12-07T09:58:54;4.10;99.90
11242;DHT22;5678;52.370;9.006;2022-12-07T10:01:22;4.20;99.90
11242;DHT22;5678;52.370;9.006;2022-12-07T10:03:53;4.40;99.90
11242;DHT22;5678;52.370;9.006;2022-12-07T10:06:21;4.40;99.90
11242;DHT22;5678;52.370;9.006;2022-12-07T10:08:51;5.80;99.90
11242;DHT22;5678;52.370;9.006;2022-12-07T10:11:19;4.90;99.90
11242;DHT22;5678;52.370;9.006;2022-12-07T10:13:48;4.40;99.90
11242;DHT22;5678;52.370;9.006;2022-12-07T10:16:35;4.40;99.90
11242;DHT22;5678;52.370;9.006;2022-12-07T10:19:19;4.30;99.90
11242;DHT22;5678;52.370;9.006;2022-12-07T10:22:06;4.80;99.90
11242;DHT22;5678;52.370;9.006;2022-12-07T10:24:38;4.80;99.90
11242;DHT22;5678;52.370;9.006;2022-12-07T10:27:18;4.30;99.90
11242;DHT22;5678;52.370;9.006;2022-12-07T10:29:51;4.20;99.90
11242;DHT22;5678;52.370;9.006;2022-12-07T10:32:31;5.40;99.90
11242;DHT22;5678;52.370;9.006;2022-12-07T10:35:22;6.00;99.90
11242;DHT22;5678;52.370;9.006;2022-12-07T10:37:51;4.50;99.90
11242;DHT22;5678;52.370;9.006;2022-12-07T10:40:30;4.50;99.90
11242;DHT22;5678;52.370;9.006;2022-12-07T10:43:13;4.80;99.90
11242;DHT22;5678;52.370;9.006;2022-12-07T10:46:03;4.60;99.90
11242;DHT22;5678;52.370;9.006;2022-12-07T10:48:45;5.20;99.90
11242;DHT22;5678;52.370;9.006;2022-12-07T10:51:24;4.70;99.90
11242;DHT22;5678;52.370;9.006;2022-12-07T10:54:09;5.90;99.90
11242;DHT22;5678;52.370;9.006;2022-12-07T10:56:57;6.10;99.90
11242;DHT22;5678;52.370;9.006;2022-12-07T10:59:39;5.30;99.90
11242;DHT22;5678;52.370;9.006;2022-12-07T11:02:23;6.30;99.90
11242;DHT22;5678;52.370;9.006;2022-12-07T11:05:00;6.00;99.90
11242;DHT22;5678;52.370;9.006;2022-12-07T11:07:38;6.20;99.90
11242;DHT22;5678;52.370;9.006;2022-12-07T11:10:13;5.70;99.90
11242;DHT22;5678;52.370;9.006;2022-12-07T11:13:04;5.40;99.90
11242;DHT22;5678;52.370;9.006;2022-12-07T11:15:40;5.10;99.90
11242;DHT22;5678;52.370;9.006;2022-12-07T11:18:17;5.10;99.90
11242;DHT22;5678;52.370;9.006;2022-12-07T11:20:54;5.80;99.90
11242;DHT22;5678;52.370;9.006;2022-12-07T11:23:32;5.50;99.90
11242;DHT22;5678;52.370;9.006;2022-12-07T11:26:07;5.10;99.90
11242;DHT22;5678;52.370;9.006;2022-12-07T11:28:58;5.10;99.90
11242;DHT22;5678;52.370;9.006;2022-12-07T11:31:36;5.20;99.90
11242;DHT22;5678;52.370;9.006;2022-12-07T11:34:12;5.70;99.90
11242;DHT22;5678;52.370;9.006;2022-12-07T11:36:44;5.20;99.90
11242;DHT22;5678;52.370;9.006;2022-12-07T11:39:22;5.50;99.90
11242;DHT22;5678;52.370;9.006;2022-12-07T11:41:55;6.40;99.90
11242;DHT22;5678;52.370;9.006;2022-12-07T11:44:33;5.70;99.90
11242;DHT22;5678;52.370;9.006;2022-12-07T11:47:06;6.00;99.90
11242;DHT22;5678;52.370;9.006;2022-12-07T11:49:44;5.20;99.90
11242;DHT22;5678;52.370;9.006;2022-12-07T11:52:20;7.30;99.90
11242;DHT22;5678;52.370;9.006;2022-12-07T11:54:52;5.70;99.90
11242;DHT22;5678;52.370;9.006;2022-12-07T11:57:24;6.30;99.90
11242;DHT22;5678;52.370;9.006;2022-12-07T11:59:59;5.20;99.90
11242;DHT22;5678;52.370;9.006;2022-12-07T12:02:34;6.10;99.90
11242;DHT22;5678;52.370;9.006;2022-12-07T12:05:13;5.20;99.90
11242;DHT22;5678;52.370;9.006;2022-12-07T12:07:44;5.30;99.90
11242;DHT22;5678;52.370;9.006;2022-12-07T12:10:41;5.30;99.90
11242;DHT22;5678;52.370;9.006;2022-12-07T12:19:30;5.50;99.90
11242;DHT22;5678;52.370;9.006;2022-12-07T12:22:06;5.50;99.90
11242;DHT22;5678;52.370;9.006;2022-12-07T12:24:37;6.40;99.90
11242;DHT22;5678;52.370;9.006;2022-12-07T12:27:09;6.60;99.90
11242;DHT22;5678;52.370;9.006;2022-12-07T12:29:39;6.40;99.90
11242;DHT22;5678;52.370;9.006;2022-12-07T12:32:15;6.10;99.90
11242;DHT22;5678;52.370;9.006;2022-12-07T12:35:17;5.50;99.90
11242;DHT22;5678;52.370;9.006;2022-12-07T12:37:47;5.50;99.90
11242;DHT22;5678;52.370;9.006;2022-12-07T12:40:41;5.50;99.90
11242;DHT22;5678;52.370;9.006;2022-12-07T12:46:49;5.50;99.90
11242;DHT22;5678;52.370;9.006;2022-12-07T12:52:52;5.50;99.90
11242;DHT22;5678;52.370;9.006;2022-12-07T12:58:39;5.50;99.90
11242;DHT22;5678;52.370;9.006;2022-12-07T13:01:39;6.00;99.90
11242;DHT22;5678;52.370;9.006;2022-12-07T13:04:29;5.50;99.90
11242;DHT22;5678;52.370;9.006;2022-12-07T13:06:58;5.50;99.90
11242;DHT22;5678;52.370;9.006;2022-12-07T13:09:29;5.60;99.90
11242;DHT22;5678;52.370;9.006;2022-12-07T13:12:04;5.70;99.90
11242;DHT22;5678;52.370;9.006;2022-12-07T13:14:55;5.40;99.90
11242;DHT22;5678;52.370;9.006;2022-12-07T13:17:58;5.40;99.90
11242;DHT22;5678;52.370;9.006;2022-12-07T13:20:57;5.40;99.90
11242;DHT22;5678;52.370;9.006;2022-12-07T13:23:31;5.40;99.90
11242;DHT22;5678;52.370;9.006;2022-12-07T13:29:03;5.30;99.90
11242;DHT22;5678;52.370;9.006;2022-12-07T13:31:34;6.40;99.90
11242;DHT22;5678;52.370;9.006;2022-12-07T13:34:04;5.20;99.90
11242;DHT22;5678;52.370;9.006;2022-12-07T13:36:34;5.20;99.90
11242;DHT22;5678;52.370;9.006;2022-12-07T13:39:20;5.90;99.90
11242;DHT22;5678;52.370;9.006;2022-12-07T13:41:52;5.10;99.90
11242;DHT22;5678;52.370;9.006;2022-12-07T13:44:22;5.10;99.90
11242;DHT22;5678;52.370;9.006;2022-12-07T13:46:56;5.10;99.90
11242;DHT22;5678;52.370;9.006;2022-12-07T13:49:26;6.00;99.90
11242;DHT22;5678;52.370;9.006;2022-12-07T13:52:12;5.00;99.90
11242;DHT22;5678;52.370;9.006;2022-12-07T13:54:44;6.10;99.90
11242;DHT22;5678;52.370;9.006;2022-12-07T13:57:14;5.60;99.90
11242;DHT22;5678;52.370;9.006;2022-12-07T13:59:43;6.00;99.90
11242;DHT22;5678;52.370;9.006;2022-12-07T14:02:18;5.90;99.90
11242;DHT22;5678;52.370;9.006;2022-12-07T14:04:50;4.80;99.90
11242;DHT22;5678;52.370;9.006;2022-12-07T14:07:22;4.90;99.90
11242;DHT22;5678;52.370;9.006;2022-12-07T14:09:58;6.20;99.90
11242;DHT22;5678;52.370;9.006;2022-12-07T14:12:29;5.70;99.90
11242;DHT22;5678;52.370;9.006;2022-12-07T14:14:59;4.80;99.90
11242;DHT22;5678;52.370;9.006;2022-12-07T14:17:29;5.60;99.90
11242;DHT22;5678;52.370;9.006;2022-12-07T14:19:57;6.00;99.90
11242;DHT22;5678;52.370;9.006;2022-12-07T14:22:29;4.60;99.90
11242;DHT22;5678;52.370;9.006;2022-12-07T14:25:19;5.50;99.90
11242;DHT22;5678;52.370;9.006;2022-12-07T14:27:53;4.60;99.90
11242;DHT22;5678;52.370;9.006;2022-12-07T14:30:24;6.20;99.90
11242;DHT22;5678;52.370;9.006;2022-12-07T14:32:55;4.60;99.90
11242;DHT22;5678;52.370;9.006;2022-12-07T14:35:24;5.40;99.90
11242;DHT22;5678;52.370;9.006;2022-12-07T14:37:52;4.50;99.90
11242;DHT22;5678;52.370;9.006;2022-12-07T14:40:23;4.50;99.90
11242;DHT22;5678;52.370;9.006;2022-12-07T14:42:55;4.30;99.90
11242;DHT22;5678;52.370;9.006;2022-12-07T14:45:24;4.50;99.90
11242;DHT22;5678;52.370;9.006;2022-12-07T14:47:52;5.90;99.90
11242;DHT22;5678;52.370;9.006;2022-12-07T14:50:43;4.30;99.90
11242;DHT22;5678;52.370;9.006;2022-12-07T14:53:40;4.20;99.90
11242;DHT22;5678;52.370;9.006;2022-12-07T14:56:08;4.20;99.90
11242;DHT22;5678;52.370;9.006;2022-12-07T14:58:37;4.00;99.90
11242;DHT22;5678;52.370;9.006;2022-12-07T15:01:05;5.70;99.90
11242;DHT22;5678;52.370;9.006;2022-12-07T15:03:33;5.40;99.90
11242;DHT22;5678;52.370;9.006;2022-12-07T15:06:04;4.50;99.90
11242;DHT22;5678;52.370;9.006;2022-12-07T15:08:33;3.90;99.90
11242;DHT22;5678;52.370;9.006;2022-12-07T15:11:01;3.80;99.90
11242;DHT22;5678;52.370;9.006;2022-12-07T15:13:29;3.80;99.90
11242;DHT22;5678;52.370;9.006;2022-12-07T15:16:19;4.80;99.90
11242;DHT22;5678;52.370;9.006;2022-12-07T15:18:47;3.70;99.90
11242;DHT22;5678;52.370;9.006;2022-12-07T15:21:35;5.00;99.90
11242;DHT22;5678;52.370;9.006;2022-12-07T15:24:03;3.60;99.90
11242;DHT22;5678;52.370;9.006;2022-12-07T15:26:31;3.50;99.90
11242;DHT22;5678;52.370;9.006;2022-12-07T15:28:59;5.20;99.90
11242;DHT22;5678;52.370;9.006;2022-12-07T15:31:28;5.00;99.90
11242;DHT22;5678;52.370;9.006;2022-12-07T15:34:16;3.30;99.90
11242;DHT22;5678;52.370;9.006;2022-12-07T15:36:44;3.30;99.90
11242;DHT22;5678;52.370;9.006;2022-12-07T15:39:12;3.30;99.90
11242;DHT22;5678;52.370;9.006;2022-12-07T15:41:41;3.20;99.90
11242;DHT22;5678;52.370;9.006;2022-12-07T15:44:11;3.20;99.90
11242;DHT22;5678;52.370;9.006;2022-12-07T15:46:58;3.20;99.90
11242;DHT22;5678;52.370;9.006;2022-12-07T15:49:27;3.20;99.90
11242;DHT22;5678;52.370;9.006;2022-12-07T15:51:55;3.10;99.90
11242;DHT22;5678;52.370;9.006;2022-12-07T15:54:24;3.10;99.90
11242;DHT22;5678;52.370;9.006;2022-12-07T15:56:53;3.10;99.90
11242;DHT22;5678;52.370;9.006;2022-12-07T15:59:21;3.10;99.90
11242;DHT22;5678;52.370;9.006;2022-12-07T16:01:49;3.10;99.90
11242;DHT22;5678;52.370;9.006;2022-12-07T16:04:18;3.00;99.90
11242;DHT22;5678;52.370;9.006;2022-12-07T16:06:46;2.80;99.90
11242;DHT22;5678;52.370;9.006;2022-12-07T16:09:14;3.10;99.90
11242;DHT22;5678;52.370;9.006;2022-12-07T16:11:42;3.00;99.90
11242;DHT22;5678;52.370;9.006;2022-12-07T16:14:10;3.00;99.90
11242;DHT22;5678;52.370;9.006;2022-12-07T16:16:38;4.60;99.90
11242;DHT22;5678;52.370;9.006;2022-12-07T16:19:08;4.20;99.90
11242;DHT22;5678;52.370;9.006;2022-12-07T16:21:39;3.00;99.90
11242;DHT22;5678;52.370;9.006;2022-12-07T16:24:07;3.00;99.90
11242;DHT22;5678;52.370;9.006;2022-12-07T16:26:36;3.00;99.90
11242;DHT22;5678;52.370;9.006;2022-12-07T16:29:04;2.90;99.90
11242;DHT22;5678;52.370;9.006;2022-12-07T16:31:32;3.30;99.90
11242;DHT22;5678;52.370;9.006;2022-12-07T16:34:00;4.00;99.90
11242;DHT22;5678;52.370;9.006;2022-12-07T16:36:28;2.90;99.90
11242;DHT22;5678;52.370;9.006;2022-12-07T16:39:17;2.90;99.90
11242;DHT22;5678;52.370;9.006;2022-12-07T16:41:45;3.60;99.90
11242;DHT22;5678;52.370;9.006;2022-12-07T16:44:13;2.90;99.90
11242;DHT22;5678;52.370;9.006;2022-12-07T16:46:42;2.90;99.90
11242;DHT22;5678;52.370;9.006;2022-12-07T16:49:12;3.10;99.90
11242;DHT22;5678;52.370;9.006;2022-12-07T16:51:40;2.80;99.90
11242;DHT22;5678;52.370;9.006;2022-12-07T16:54:10;2.80;99.90
11242;DHT22;5678;52.370;9.006;2022-12-07T16:56:40;2.80;99.90